
<gpx xmlns="http://www.topografix.com/GPX/1/1" xmlns:gpxx="http://www.garmin.com/xmlschemas/GpxExtensions/v3" xmlns:xsi="http://www.w3.org/2001/XMLSchema-instance" version="1.1" creator="Adze - https://getadze.com/" xsi:schemaLocation="http://www.topografix.com/GPX/1/1 http://www.topografix.com/GPX/1/1/gpx.xsd http://www.garmin.com/xmlschemas/GpxExtensions/v3 http://www8.garmin.com/xmlschemas/GpxExtensionsv3.xsd">
    <metadata>
        <name>Untitled Document</name>
        <link href="http://www.garmin.com"></link>
        <time>2018-03-05T07:34:32.622Z</time>
    </metadata>
    <trk>
        <name>December 2005 - Sunday</name>
        <extensions>
            <gpxx:TrackExtension>
                <gpxx:DisplayColor>DarkGray</gpxx:DisplayColor>
            </gpxx:TrackExtension>
        </extensions>
        <trkseg>
            <trkpt lon="100.902171" lat="12.775061">
                <ele>88.098022</ele>
                <time>2005-12-18T03:22:07Z</time>
            </trkpt>
            <trkpt lon="100.902214" lat="12.775340">
                <ele>7.347168</ele>
                <time>2005-12-18T03:42:43Z</time>
            </trkpt>
            <trkpt lon="100.902214" lat="12.775340">
                <ele>8.789185</ele>
                <time>2005-12-18T03:42:56Z</time>
            </trkpt>
            <trkpt lon="100.902128" lat="12.775362">
                <ele>8.308594</ele>
                <time>2005-12-18T03:43:00Z</time>
            </trkpt>
            <trkpt lon="100.901978" lat="12.775383">
                <ele>5.905273</ele>
                <time>2005-12-18T03:43:05Z</time>
            </trkpt>
            <trkpt lon="100.901849" lat="12.775233">
                <ele>5.905273</ele>
                <time>2005-12-18T03:43:10Z</time>
            </trkpt>
            <trkpt lon="100.901506" lat="12.774696">
                <ele>5.905273</ele>
                <time>2005-12-18T03:43:26Z</time>
            </trkpt>
            <trkpt lon="100.900948" lat="12.773902">
                <ele>6.385864</ele>
                <time>2005-12-18T03:43:49Z</time>
            </trkpt>
            <trkpt lon="100.900390" lat="12.773151">
                <ele>7.347168</ele>
                <time>2005-12-18T03:44:10Z</time>
            </trkpt>
            <trkpt lon="100.899596" lat="12.772100">
                <ele>7.827881</ele>
                <time>2005-12-18T03:44:35Z</time>
            </trkpt>
            <trkpt lon="100.898759" lat="12.771049">
                <ele>10.231201</ele>
                <time>2005-12-18T03:44:59Z</time>
            </trkpt>
            <trkpt lon="100.897944" lat="12.770126">
                <ele>10.231201</ele>
                <time>2005-12-18T03:45:21Z</time>
            </trkpt>
            <trkpt lon="100.897000" lat="12.769139">
                <ele>11.192505</ele>
                <time>2005-12-18T03:45:45Z</time>
            </trkpt>
            <trkpt lon="100.896120" lat="12.768216">
                <ele>9.750610</ele>
                <time>2005-12-18T03:46:08Z</time>
            </trkpt>
            <trkpt lon="100.895240" lat="12.767401">
                <ele>8.789185</ele>
                <time>2005-12-18T03:46:29Z</time>
            </trkpt>
            <trkpt lon="100.894082" lat="12.766414">
                <ele>6.385864</ele>
                <time>2005-12-18T03:46:55Z</time>
            </trkpt>
            <trkpt lon="100.893395" lat="12.765856">
                <ele>6.866455</ele>
                <time>2005-12-18T03:47:11Z</time>
            </trkpt>
            <trkpt lon="100.893352" lat="12.765791">
                <ele>6.866455</ele>
                <time>2005-12-18T03:47:15Z</time>
            </trkpt>
            <trkpt lon="100.893352" lat="12.765770">
                <ele>6.385864</ele>
                <time>2005-12-18T03:47:20Z</time>
            </trkpt>
            <trkpt lon="100.893030" lat="12.765534">
                <ele>4.943848</ele>
                <time>2005-12-18T03:47:34Z</time>
            </trkpt>
            <trkpt lon="100.892322" lat="12.765040">
                <ele>5.905273</ele>
                <time>2005-12-18T03:47:56Z</time>
            </trkpt>
            <trkpt lon="100.891507" lat="12.764440">
                <ele>3.501953</ele>
                <time>2005-12-18T03:48:17Z</time>
            </trkpt>
            <trkpt lon="100.891013" lat="12.764075">
                <ele>3.021240</ele>
                <time>2005-12-18T03:48:29Z</time>
            </trkpt>
            <trkpt lon="100.890884" lat="12.763925">
                <ele>2.540649</ele>
                <time>2005-12-18T03:48:34Z</time>
            </trkpt>
            <trkpt lon="100.890627" lat="12.763817">
                <ele>3.021240</ele>
                <time>2005-12-18T03:48:41Z</time>
            </trkpt>
            <trkpt lon="100.889597" lat="12.763152">
                <ele>2.060059</ele>
                <time>2005-12-18T03:49:08Z</time>
            </trkpt>
            <trkpt lon="100.889103" lat="12.762895">
                <ele>2.060059</ele>
                <time>2005-12-18T03:49:22Z</time>
            </trkpt>
            <trkpt lon="100.888374" lat="12.762637">
                <ele>3.982666</ele>
                <time>2005-12-18T03:49:39Z</time>
            </trkpt>
            <trkpt lon="100.888095" lat="12.762487">
                <ele>3.982666</ele>
                <time>2005-12-18T03:49:45Z</time>
            </trkpt>
            <trkpt lon="100.887022" lat="12.762122">
                <ele>4.463257</ele>
                <time>2005-12-18T03:50:06Z</time>
            </trkpt>
            <trkpt lon="100.885928" lat="12.761714">
                <ele>4.943848</ele>
                <time>2005-12-18T03:50:27Z</time>
            </trkpt>
            <trkpt lon="100.885177" lat="12.761457">
                <ele>3.501953</ele>
                <time>2005-12-18T03:50:42Z</time>
            </trkpt>
            <trkpt lon="100.885048" lat="12.761307">
                <ele>4.943848</ele>
                <time>2005-12-18T03:50:47Z</time>
            </trkpt>
            <trkpt lon="100.885177" lat="12.760985">
                <ele>4.943848</ele>
                <time>2005-12-18T03:50:57Z</time>
            </trkpt>
            <trkpt lon="100.884790" lat="12.760792">
                <ele>3.501953</ele>
                <time>2005-12-18T03:51:07Z</time>
            </trkpt>
            <trkpt lon="100.884125" lat="12.760513">
                <ele>3.021240</ele>
                <time>2005-12-18T03:51:24Z</time>
            </trkpt>
            <trkpt lon="100.883052" lat="12.759998">
                <ele>4.943848</ele>
                <time>2005-12-18T03:51:48Z</time>
            </trkpt>
            <trkpt lon="100.882709" lat="12.759869">
                <ele>4.463257</ele>
                <time>2005-12-18T03:51:56Z</time>
            </trkpt>
            <trkpt lon="100.881701" lat="12.759891">
                <ele>5.905273</ele>
                <time>2005-12-18T03:52:17Z</time>
            </trkpt>
            <trkpt lon="100.881550" lat="12.759826">
                <ele>6.385864</ele>
                <time>2005-12-18T03:52:21Z</time>
            </trkpt>
            <trkpt lon="100.881507" lat="12.759740">
                <ele>6.385864</ele>
                <time>2005-12-18T03:52:23Z</time>
            </trkpt>
            <trkpt lon="100.881422" lat="12.759311">
                <ele>6.385864</ele>
                <time>2005-12-18T03:52:37Z</time>
            </trkpt>
            <trkpt lon="100.881507" lat="12.759290">
                <ele>5.424561</ele>
                <time>2005-12-18T03:52:54Z</time>
            </trkpt>
            <trkpt lon="100.881550" lat="12.759333">
                <ele>4.463257</ele>
                <time>2005-12-18T03:53:52Z</time>
            </trkpt>
            <trkpt lon="100.881550" lat="12.759333">
                <ele>5.905273</ele>
                <time>2005-12-18T03:54:34Z</time>
            </trkpt>
            <trkpt lon="100.881658" lat="12.759268">
                <ele>5.424561</ele>
                <time>2005-12-18T03:55:04Z</time>
            </trkpt>
            <trkpt lon="100.882001" lat="12.758925">
                <ele>5.424561</ele>
                <time>2005-12-18T03:55:20Z</time>
            </trkpt>
            <trkpt lon="100.882430" lat="12.758496">
                <ele>4.463257</ele>
                <time>2005-12-18T03:55:39Z</time>
            </trkpt>
            <trkpt lon="100.882752" lat="12.758324">
                <ele>4.943848</ele>
                <time>2005-12-18T03:55:48Z</time>
            </trkpt>
            <trkpt lon="100.883546" lat="12.758238">
                <ele>6.866455</ele>
                <time>2005-12-18T03:56:06Z</time>
            </trkpt>
            <trkpt lon="100.884297" lat="12.758131">
                <ele>8.308594</ele>
                <time>2005-12-18T03:56:22Z</time>
            </trkpt>
            <trkpt lon="100.884619" lat="12.757916">
                <ele>8.789185</ele>
                <time>2005-12-18T03:56:31Z</time>
            </trkpt>
            <trkpt lon="100.884812" lat="12.757916">
                <ele>8.789185</ele>
                <time>2005-12-18T03:56:35Z</time>
            </trkpt>
            <trkpt lon="100.885220" lat="12.758067">
                <ele>8.308594</ele>
                <time>2005-12-18T03:56:46Z</time>
            </trkpt>
            <trkpt lon="100.885305" lat="12.757981">
                <ele>8.789185</ele>
                <time>2005-12-18T03:56:50Z</time>
            </trkpt>
            <trkpt lon="100.885584" lat="12.756972">
                <ele>8.789185</ele>
                <time>2005-12-18T03:57:13Z</time>
            </trkpt>
            <trkpt lon="100.885713" lat="12.755985">
                <ele>6.385864</ele>
                <time>2005-12-18T03:57:31Z</time>
            </trkpt>
            <trkpt lon="100.885949" lat="12.755771">
                <ele>6.866455</ele>
                <time>2005-12-18T03:57:37Z</time>
            </trkpt>
            <trkpt lon="100.886979" lat="12.755578">
                <ele>7.827881</ele>
                <time>2005-12-18T03:57:57Z</time>
            </trkpt>
            <trkpt lon="100.887666" lat="12.755299">
                <ele>7.827881</ele>
                <time>2005-12-18T03:58:11Z</time>
            </trkpt>
            <trkpt lon="100.888116" lat="12.755277">
                <ele>8.308594</ele>
                <time>2005-12-18T03:58:19Z</time>
            </trkpt>
            <trkpt lon="100.888910" lat="12.755535">
                <ele>8.308594</ele>
                <time>2005-12-18T03:58:34Z</time>
            </trkpt>
            <trkpt lon="100.889704" lat="12.755835">
                <ele>7.827881</ele>
                <time>2005-12-18T03:58:50Z</time>
            </trkpt>
            <trkpt lon="100.890477" lat="12.756114">
                <ele>8.308594</ele>
                <time>2005-12-18T03:59:07Z</time>
            </trkpt>
            <trkpt lon="100.891399" lat="12.756479">
                <ele>9.269897</ele>
                <time>2005-12-18T03:59:27Z</time>
            </trkpt>
            <trkpt lon="100.891957" lat="12.756693">
                <ele>7.827881</ele>
                <time>2005-12-18T03:59:41Z</time>
            </trkpt>
            <trkpt lon="100.892043" lat="12.756608">
                <ele>8.308594</ele>
                <time>2005-12-18T03:59:52Z</time>
            </trkpt>
            <trkpt lon="100.892279" lat="12.756114">
                <ele>7.347168</ele>
                <time>2005-12-18T04:00:09Z</time>
            </trkpt>
            <trkpt lon="100.892580" lat="12.755449">
                <ele>6.385864</ele>
                <time>2005-12-18T04:00:25Z</time>
            </trkpt>
            <trkpt lon="100.892923" lat="12.754676">
                <ele>5.905273</ele>
                <time>2005-12-18T04:00:42Z</time>
            </trkpt>
            <trkpt lon="100.893309" lat="12.753797">
                <ele>5.905273</ele>
                <time>2005-12-18T04:01:01Z</time>
            </trkpt>
            <trkpt lon="100.893610" lat="12.753239">
                <ele>6.866455</ele>
                <time>2005-12-18T04:01:13Z</time>
            </trkpt>
            <trkpt lon="100.893846" lat="12.752788">
                <ele>6.866455</ele>
                <time>2005-12-18T04:01:24Z</time>
            </trkpt>
            <trkpt lon="100.894082" lat="12.752724">
                <ele>6.866455</ele>
                <time>2005-12-18T04:01:31Z</time>
            </trkpt>
            <trkpt lon="100.894682" lat="12.752960">
                <ele>7.827881</ele>
                <time>2005-12-18T04:01:47Z</time>
            </trkpt>
            <trkpt lon="100.895090" lat="12.753110">
                <ele>8.308594</ele>
                <time>2005-12-18T04:01:59Z</time>
            </trkpt>
            <trkpt lon="100.895412" lat="12.752960">
                <ele>10.231201</ele>
                <time>2005-12-18T04:02:10Z</time>
            </trkpt>
            <trkpt lon="100.895820" lat="12.752702">
                <ele>9.269897</ele>
                <time>2005-12-18T04:02:23Z</time>
            </trkpt>
            <trkpt lon="100.896399" lat="12.752659">
                <ele>9.750610</ele>
                <time>2005-12-18T04:02:38Z</time>
            </trkpt>
            <trkpt lon="100.896528" lat="12.752659">
                <ele>9.269897</ele>
                <time>2005-12-18T04:02:41Z</time>
            </trkpt>
            <trkpt lon="100.897129" lat="12.752767">
                <ele>9.750610</ele>
                <time>2005-12-18T04:02:58Z</time>
            </trkpt>
            <trkpt lon="100.897193" lat="12.752767">
                <ele>9.750610</ele>
                <time>2005-12-18T04:03:00Z</time>
            </trkpt>
            <trkpt lon="100.897686" lat="12.752745">
                <ele>9.750610</ele>
                <time>2005-12-18T04:03:11Z</time>
            </trkpt>
            <trkpt lon="100.897837" lat="12.752788">
                <ele>10.231201</ele>
                <time>2005-12-18T04:03:15Z</time>
            </trkpt>
            <trkpt lon="100.898309" lat="12.753174">
                <ele>10.711792</ele>
                <time>2005-12-18T04:03:29Z</time>
            </trkpt>
            <trkpt lon="100.898373" lat="12.753389">
                <ele>10.711792</ele>
                <time>2005-12-18T04:03:34Z</time>
            </trkpt>
            <trkpt lon="100.898438" lat="12.753646">
                <ele>11.192505</ele>
                <time>2005-12-18T04:03:40Z</time>
            </trkpt>
            <trkpt lon="100.898824" lat="12.754312">
                <ele>11.192505</ele>
                <time>2005-12-18T04:03:58Z</time>
            </trkpt>
            <trkpt lon="100.898931" lat="12.754397">
                <ele>11.192505</ele>
                <time>2005-12-18T04:04:02Z</time>
            </trkpt>
            <trkpt lon="100.899017" lat="12.754354">
                <ele>11.673218</ele>
                <time>2005-12-18T04:04:06Z</time>
            </trkpt>
            <trkpt lon="100.899532" lat="12.753754">
                <ele>12.634399</ele>
                <time>2005-12-18T04:04:25Z</time>
            </trkpt>
            <trkpt lon="100.900283" lat="12.753131">
                <ele>14.557007</ele>
                <time>2005-12-18T04:04:48Z</time>
            </trkpt>
            <trkpt lon="100.900583" lat="12.752917">
                <ele>17.441162</ele>
                <time>2005-12-18T04:05:02Z</time>
            </trkpt>
            <trkpt lon="100.900497" lat="12.752616">
                <ele>17.441162</ele>
                <time>2005-12-18T04:05:17Z</time>
            </trkpt>
            <trkpt lon="100.900369" lat="12.752316">
                <ele>17.921753</ele>
                <time>2005-12-18T04:05:26Z</time>
            </trkpt>
            <trkpt lon="100.900369" lat="12.752230">
                <ele>17.921753</ele>
                <time>2005-12-18T04:05:28Z</time>
            </trkpt>
            <trkpt lon="100.900326" lat="12.752037">
                <ele>16.960449</ele>
                <time>2005-12-18T04:05:32Z</time>
            </trkpt>
            <trkpt lon="100.900047" lat="12.751415">
                <ele>16.960449</ele>
                <time>2005-12-18T04:05:50Z</time>
            </trkpt>
            <trkpt lon="100.900090" lat="12.751286">
                <ele>16.479736</ele>
                <time>2005-12-18T04:06:00Z</time>
            </trkpt>
            <trkpt lon="100.900111" lat="12.751286">
                <ele>15.037720</ele>
                <time>2005-12-18T04:06:10Z</time>
            </trkpt>
            <trkpt lon="100.900304" lat="12.751179">
                <ele>14.076416</ele>
                <time>2005-12-18T04:06:23Z</time>
            </trkpt>
            <trkpt lon="100.900605" lat="12.751050">
                <ele>14.557007</ele>
                <time>2005-12-18T04:06:38Z</time>
            </trkpt>
            <trkpt lon="100.901098" lat="12.750814">
                <ele>15.999023</ele>
                <time>2005-12-18T04:06:56Z</time>
            </trkpt>
            <trkpt lon="100.901549" lat="12.750428">
                <ele>16.479736</ele>
                <time>2005-12-18T04:07:13Z</time>
            </trkpt>
            <trkpt lon="100.901999" lat="12.750020">
                <ele>16.960449</ele>
                <time>2005-12-18T04:07:29Z</time>
            </trkpt>
            <trkpt lon="100.902622" lat="12.749634">
                <ele>17.921753</ele>
                <time>2005-12-18T04:07:48Z</time>
            </trkpt>
            <trkpt lon="100.902643" lat="12.749591">
                <ele>17.921753</ele>
                <time>2005-12-18T04:07:49Z</time>
            </trkpt>
            <trkpt lon="100.902793" lat="12.749162">
                <ele>17.441162</ele>
                <time>2005-12-18T04:08:00Z</time>
            </trkpt>
            <trkpt lon="100.903072" lat="12.748990">
                <ele>18.402344</ele>
                <time>2005-12-18T04:08:08Z</time>
            </trkpt>
            <trkpt lon="100.903351" lat="12.748775">
                <ele>19.844360</ele>
                <time>2005-12-18T04:08:17Z</time>
            </trkpt>
            <trkpt lon="100.904081" lat="12.748604">
                <ele>22.247559</ele>
                <time>2005-12-18T04:08:36Z</time>
            </trkpt>
            <trkpt lon="100.904725" lat="12.748368">
                <ele>23.208984</ele>
                <time>2005-12-18T04:08:54Z</time>
            </trkpt>
            <trkpt lon="100.904832" lat="12.747939">
                <ele>23.689575</ele>
                <time>2005-12-18T04:09:05Z</time>
            </trkpt>
            <trkpt lon="100.904682" lat="12.747252">
                <ele>23.208984</ele>
                <time>2005-12-18T04:09:21Z</time>
            </trkpt>
            <trkpt lon="100.904360" lat="12.746372">
                <ele>24.651001</ele>
                <time>2005-12-18T04:09:39Z</time>
            </trkpt>
            <trkpt lon="100.904124" lat="12.745407">
                <ele>26.573608</ele>
                <time>2005-12-18T04:09:59Z</time>
            </trkpt>
            <trkpt lon="100.904102" lat="12.745321">
                <ele>27.054321</ele>
                <time>2005-12-18T04:10:01Z</time>
            </trkpt>
            <trkpt lon="100.904274" lat="12.745042">
                <ele>26.573608</ele>
                <time>2005-12-18T04:10:09Z</time>
            </trkpt>
            <trkpt lon="100.904875" lat="12.744527">
                <ele>27.054321</ele>
                <time>2005-12-18T04:10:28Z</time>
            </trkpt>
            <trkpt lon="100.905433" lat="12.743990">
                <ele>29.457520</ele>
                <time>2005-12-18T04:10:46Z</time>
            </trkpt>
            <trkpt lon="100.906270" lat="12.743261">
                <ele>35.225464</ele>
                <time>2005-12-18T04:11:12Z</time>
            </trkpt>
            <trkpt lon="100.907085" lat="12.742746">
                <ele>35.225464</ele>
                <time>2005-12-18T04:11:36Z</time>
            </trkpt>
            <trkpt lon="100.907664" lat="12.742381">
                <ele>36.667480</ele>
                <time>2005-12-18T04:11:54Z</time>
            </trkpt>
            <trkpt lon="100.907836" lat="12.741866">
                <ele>39.070679</ele>
                <time>2005-12-18T04:12:09Z</time>
            </trkpt>
            <trkpt lon="100.907686" lat="12.741072">
                <ele>41.954712</ele>
                <time>2005-12-18T04:12:29Z</time>
            </trkpt>
            <trkpt lon="100.907900" lat="12.740235">
                <ele>41.954712</ele>
                <time>2005-12-18T04:12:50Z</time>
            </trkpt>
            <trkpt lon="100.908136" lat="12.739549">
                <ele>42.435425</ele>
                <time>2005-12-18T04:13:10Z</time>
            </trkpt>
            <trkpt lon="100.908158" lat="12.739506">
                <ele>42.916016</ele>
                <time>2005-12-18T04:13:21Z</time>
            </trkpt>
            <trkpt lon="100.908158" lat="12.739484">
                <ele>43.396606</ele>
                <time>2005-12-18T04:13:49Z</time>
            </trkpt>
            <trkpt lon="100.908179" lat="12.739334">
                <ele>46.280640</ele>
                <time>2005-12-18T04:14:53Z</time>
            </trkpt>
            <trkpt lon="100.908308" lat="12.738926">
                <ele>45.799927</ele>
                <time>2005-12-18T04:15:07Z</time>
            </trkpt>
            <trkpt lon="100.908587" lat="12.738175">
                <ele>47.241821</ele>
                <time>2005-12-18T04:15:27Z</time>
            </trkpt>
            <trkpt lon="100.908844" lat="12.737617">
                <ele>51.567871</ele>
                <time>2005-12-18T04:15:44Z</time>
            </trkpt>
            <trkpt lon="100.909252" lat="12.736995">
                <ele>56.374512</ele>
                <time>2005-12-18T04:16:05Z</time>
            </trkpt>
            <trkpt lon="100.909746" lat="12.736394">
                <ele>58.297119</ele>
                <time>2005-12-18T04:16:26Z</time>
            </trkpt>
            <trkpt lon="100.910347" lat="12.735665">
                <ele>62.142334</ele>
                <time>2005-12-18T04:16:50Z</time>
            </trkpt>
            <trkpt lon="100.910969" lat="12.735085">
                <ele>61.661743</ele>
                <time>2005-12-18T04:17:09Z</time>
            </trkpt>
            <trkpt lon="100.911398" lat="12.734313">
                <ele>58.777710</ele>
                <time>2005-12-18T04:17:23Z</time>
            </trkpt>
            <trkpt lon="100.911720" lat="12.733133">
                <ele>55.413086</ele>
                <time>2005-12-18T04:17:40Z</time>
            </trkpt>
            <trkpt lon="100.911784" lat="12.731931">
                <ele>53.490479</ele>
                <time>2005-12-18T04:17:56Z</time>
            </trkpt>
            <trkpt lon="100.911806" lat="12.731609">
                <ele>53.490479</ele>
                <time>2005-12-18T04:18:04Z</time>
            </trkpt>
            <trkpt lon="100.911827" lat="12.731566">
                <ele>53.490479</ele>
                <time>2005-12-18T04:18:06Z</time>
            </trkpt>
            <trkpt lon="100.911891" lat="12.731566">
                <ele>52.529175</ele>
                <time>2005-12-18T04:18:20Z</time>
            </trkpt>
            <trkpt lon="100.911870" lat="12.731545">
                <ele>53.490479</ele>
                <time>2005-12-18T04:18:59Z</time>
            </trkpt>
            <trkpt lon="100.912042" lat="12.731566">
                <ele>53.490479</ele>
                <time>2005-12-18T04:19:31Z</time>
            </trkpt>
            <trkpt lon="100.912492" lat="12.731652">
                <ele>54.451782</ele>
                <time>2005-12-18T04:19:45Z</time>
            </trkpt>
            <trkpt lon="100.913351" lat="12.731781">
                <ele>55.893799</ele>
                <time>2005-12-18T04:20:06Z</time>
            </trkpt>
            <trkpt lon="100.913694" lat="12.731824">
                <ele>55.893799</ele>
                <time>2005-12-18T04:20:14Z</time>
            </trkpt>
            <trkpt lon="100.914552" lat="12.731953">
                <ele>56.374512</ele>
                <time>2005-12-18T04:20:33Z</time>
            </trkpt>
            <trkpt lon="100.915754" lat="12.732146">
                <ele>55.413086</ele>
                <time>2005-12-18T04:20:56Z</time>
            </trkpt>
            <trkpt lon="100.916870" lat="12.732317">
                <ele>54.451782</ele>
                <time>2005-12-18T04:21:15Z</time>
            </trkpt>
            <trkpt lon="100.918179" lat="12.732532">
                <ele>54.451782</ele>
                <time>2005-12-18T04:21:38Z</time>
            </trkpt>
            <trkpt lon="100.919380" lat="12.732725">
                <ele>55.413086</ele>
                <time>2005-12-18T04:22:00Z</time>
            </trkpt>
            <trkpt lon="100.920475" lat="12.732854">
                <ele>55.413086</ele>
                <time>2005-12-18T04:22:21Z</time>
            </trkpt>
            <trkpt lon="100.921741" lat="12.732854">
                <ele>55.413086</ele>
                <time>2005-12-18T04:22:45Z</time>
            </trkpt>
            <trkpt lon="100.923285" lat="12.732790">
                <ele>56.374512</ele>
                <time>2005-12-18T04:23:13Z</time>
            </trkpt>
            <trkpt lon="100.924423" lat="12.732768">
                <ele>56.374512</ele>
                <time>2005-12-18T04:23:36Z</time>
            </trkpt>
            <trkpt lon="100.925024" lat="12.732768">
                <ele>57.816528</ele>
                <time>2005-12-18T04:23:52Z</time>
            </trkpt>
            <trkpt lon="100.924981" lat="12.733133">
                <ele>56.855103</ele>
                <time>2005-12-18T04:24:03Z</time>
            </trkpt>
            <trkpt lon="100.924723" lat="12.733777">
                <ele>56.374512</ele>
                <time>2005-12-18T04:24:18Z</time>
            </trkpt>
            <trkpt lon="100.924423" lat="12.734056">
                <ele>57.335815</ele>
                <time>2005-12-18T04:24:30Z</time>
            </trkpt>
            <trkpt lon="100.924208" lat="12.734571">
                <ele>57.816528</ele>
                <time>2005-12-18T04:24:47Z</time>
            </trkpt>
            <trkpt lon="100.923951" lat="12.735171">
                <ele>59.739136</ele>
                <time>2005-12-18T04:25:07Z</time>
            </trkpt>
            <trkpt lon="100.923715" lat="12.735815">
                <ele>62.622925</ele>
                <time>2005-12-18T04:25:28Z</time>
            </trkpt>
            <trkpt lon="100.923715" lat="12.735944">
                <ele>62.622925</ele>
                <time>2005-12-18T04:25:32Z</time>
            </trkpt>
            <trkpt lon="100.923822" lat="12.736244">
                <ele>65.987671</ele>
                <time>2005-12-18T04:25:48Z</time>
            </trkpt>
            <trkpt lon="100.923672" lat="12.736566">
                <ele>66.948975</ele>
                <time>2005-12-18T04:26:03Z</time>
            </trkpt>
            <trkpt lon="100.923607" lat="12.736716">
                <ele>68.390869</ele>
                <time>2005-12-18T04:26:13Z</time>
            </trkpt>
            <trkpt lon="100.923479" lat="12.736952">
                <ele>70.794189</ele>
                <time>2005-12-18T04:26:28Z</time>
            </trkpt>
            <trkpt lon="100.923328" lat="12.737167">
                <ele>71.274902</ele>
                <time>2005-12-18T04:26:40Z</time>
            </trkpt>
            <trkpt lon="100.923307" lat="12.737381">
                <ele>72.236206</ele>
                <time>2005-12-18T04:26:50Z</time>
            </trkpt>
            <trkpt lon="100.923543" lat="12.737596">
                <ele>74.639526</ele>
                <time>2005-12-18T04:27:04Z</time>
            </trkpt>
            <trkpt lon="100.923822" lat="12.737896">
                <ele>77.042847</ele>
                <time>2005-12-18T04:27:20Z</time>
            </trkpt>
            <trkpt lon="100.923779" lat="12.738347">
                <ele>78.965454</ele>
                <time>2005-12-18T04:27:39Z</time>
            </trkpt>
            <trkpt lon="100.923779" lat="12.738411">
                <ele>79.926636</ele>
                <time>2005-12-18T04:27:51Z</time>
            </trkpt>
            <trkpt lon="100.923758" lat="12.738411">
                <ele>80.888184</ele>
                <time>2005-12-18T04:28:44Z</time>
            </trkpt>
            <trkpt lon="100.923758" lat="12.738411">
                <ele>81.368774</ele>
                <time>2005-12-18T04:30:24Z</time>
            </trkpt>
            <trkpt lon="100.923758" lat="12.738411">
                <ele>79.926636</ele>
                <time>2005-12-18T04:32:40Z</time>
            </trkpt>
            <trkpt lon="100.923779" lat="12.738433">
                <ele>79.446045</ele>
                <time>2005-12-18T04:34:11Z</time>
            </trkpt>
            <trkpt lon="100.924058" lat="12.738626">
                <ele>80.407471</ele>
                <time>2005-12-18T04:34:29Z</time>
            </trkpt>
            <trkpt lon="100.924551" lat="12.738991">
                <ele>78.965454</ele>
                <time>2005-12-18T04:34:47Z</time>
            </trkpt>
            <trkpt lon="100.924766" lat="12.739398">
                <ele>79.926636</ele>
                <time>2005-12-18T04:34:59Z</time>
            </trkpt>
            <trkpt lon="100.925066" lat="12.739849">
                <ele>79.926636</ele>
                <time>2005-12-18T04:35:14Z</time>
            </trkpt>
            <trkpt lon="100.925195" lat="12.740064">
                <ele>78.965454</ele>
                <time>2005-12-18T04:35:22Z</time>
            </trkpt>
            <trkpt lon="100.925367" lat="12.740042">
                <ele>78.484741</ele>
                <time>2005-12-18T04:35:26Z</time>
            </trkpt>
            <trkpt lon="100.925796" lat="12.739892">
                <ele>76.562134</ele>
                <time>2005-12-18T04:35:41Z</time>
            </trkpt>
            <trkpt lon="100.925839" lat="12.739935">
                <ele>76.081421</ele>
                <time>2005-12-18T04:35:55Z</time>
            </trkpt>
            <trkpt lon="100.925946" lat="12.740321">
                <ele>75.600830</ele>
                <time>2005-12-18T04:36:09Z</time>
            </trkpt>
            <trkpt lon="100.925989" lat="12.740836">
                <ele>75.120239</ele>
                <time>2005-12-18T04:36:25Z</time>
            </trkpt>
            <trkpt lon="100.926096" lat="12.741201">
                <ele>75.600830</ele>
                <time>2005-12-18T04:36:37Z</time>
            </trkpt>
            <trkpt lon="100.926054" lat="12.741351">
                <ele>76.081421</ele>
                <time>2005-12-18T04:36:43Z</time>
            </trkpt>
            <trkpt lon="100.926096" lat="12.741716">
                <ele>76.081421</ele>
                <time>2005-12-18T04:37:01Z</time>
            </trkpt>
            <trkpt lon="100.926139" lat="12.742059">
                <ele>78.004028</ele>
                <time>2005-12-18T04:37:20Z</time>
            </trkpt>
            <trkpt lon="100.926225" lat="12.742360">
                <ele>79.926636</ele>
                <time>2005-12-18T04:37:36Z</time>
            </trkpt>
            <trkpt lon="100.926311" lat="12.742724">
                <ele>80.407471</ele>
                <time>2005-12-18T04:37:51Z</time>
            </trkpt>
            <trkpt lon="100.926461" lat="12.743325">
                <ele>79.446045</ele>
                <time>2005-12-18T04:38:08Z</time>
            </trkpt>
            <trkpt lon="100.926483" lat="12.743604">
                <ele>78.004028</ele>
                <time>2005-12-18T04:38:18Z</time>
            </trkpt>
            <trkpt lon="100.926375" lat="12.743669">
                <ele>80.407471</ele>
                <time>2005-12-18T04:38:31Z</time>
            </trkpt>
            <trkpt lon="100.926354" lat="12.743733">
                <ele>82.330078</ele>
                <time>2005-12-18T04:38:42Z</time>
            </trkpt>
            <trkpt lon="100.926590" lat="12.744012">
                <ele>80.888184</ele>
                <time>2005-12-18T04:38:57Z</time>
            </trkpt>
            <trkpt lon="100.926740" lat="12.744269">
                <ele>78.965454</ele>
                <time>2005-12-18T04:39:10Z</time>
            </trkpt>
            <trkpt lon="100.926826" lat="12.744656">
                <ele>75.120239</ele>
                <time>2005-12-18T04:39:26Z</time>
            </trkpt>
            <trkpt lon="100.926654" lat="12.744913">
                <ele>73.197632</ele>
                <time>2005-12-18T04:39:39Z</time>
            </trkpt>
            <trkpt lon="100.926504" lat="12.745042">
                <ele>72.236206</ele>
                <time>2005-12-18T04:39:49Z</time>
            </trkpt>
            <trkpt lon="100.926483" lat="12.745042">
                <ele>72.236206</ele>
                <time>2005-12-18T04:39:50Z</time>
            </trkpt>
            <trkpt lon="100.926440" lat="12.745085">
                <ele>72.236206</ele>
                <time>2005-12-18T04:39:54Z</time>
            </trkpt>
            <trkpt lon="100.926375" lat="12.745128">
                <ele>72.716919</ele>
                <time>2005-12-18T04:39:57Z</time>
            </trkpt>
            <trkpt lon="100.926311" lat="12.745149">
                <ele>72.236206</ele>
                <time>2005-12-18T04:40:09Z</time>
            </trkpt>
            <trkpt lon="100.926311" lat="12.745171">
                <ele>72.236206</ele>
                <time>2005-12-18T04:40:10Z</time>
            </trkpt>
            <trkpt lon="100.926290" lat="12.745492">
                <ele>68.390869</ele>
                <time>2005-12-18T04:40:24Z</time>
            </trkpt>
            <trkpt lon="100.926311" lat="12.745771">
                <ele>64.545654</ele>
                <time>2005-12-18T04:40:37Z</time>
            </trkpt>
            <trkpt lon="100.926354" lat="12.745986">
                <ele>64.545654</ele>
                <time>2005-12-18T04:40:46Z</time>
            </trkpt>
            <trkpt lon="100.926375" lat="12.746115">
                <ele>62.142334</ele>
                <time>2005-12-18T04:40:57Z</time>
            </trkpt>
            <trkpt lon="100.926397" lat="12.746265">
                <ele>60.219727</ele>
                <time>2005-12-18T04:41:12Z</time>
            </trkpt>
            <trkpt lon="100.926397" lat="12.746286">
                <ele>60.219727</ele>
                <time>2005-12-18T04:41:14Z</time>
            </trkpt>
            <trkpt lon="100.926332" lat="12.746372">
                <ele>57.816528</ele>
                <time>2005-12-18T04:41:20Z</time>
            </trkpt>
            <trkpt lon="100.926139" lat="12.746480">
                <ele>57.335815</ele>
                <time>2005-12-18T04:41:36Z</time>
            </trkpt>
            <trkpt lon="100.925775" lat="12.746716">
                <ele>58.777710</ele>
                <time>2005-12-18T04:41:53Z</time>
            </trkpt>
            <trkpt lon="100.925496" lat="12.746651">
                <ele>61.181030</ele>
                <time>2005-12-18T04:42:06Z</time>
            </trkpt>
            <trkpt lon="100.925152" lat="12.746458">
                <ele>62.622925</ele>
                <time>2005-12-18T04:42:22Z</time>
            </trkpt>
            <trkpt lon="100.924895" lat="12.746351">
                <ele>64.065063</ele>
                <time>2005-12-18T04:42:36Z</time>
            </trkpt>
            <trkpt lon="100.924594" lat="12.746136">
                <ele>65.987671</ele>
                <time>2005-12-18T04:42:53Z</time>
            </trkpt>
            <trkpt lon="100.924208" lat="12.746029">
                <ele>67.429688</ele>
                <time>2005-12-18T04:43:11Z</time>
            </trkpt>
            <trkpt lon="100.923865" lat="12.745836">
                <ele>69.832886</ele>
                <time>2005-12-18T04:43:30Z</time>
            </trkpt>
            <trkpt lon="100.923543" lat="12.745643">
                <ele>72.236206</ele>
                <time>2005-12-18T04:43:48Z</time>
            </trkpt>
            <trkpt lon="100.923414" lat="12.745557">
                <ele>73.678223</ele>
                <time>2005-12-18T04:43:57Z</time>
            </trkpt>
            <trkpt lon="100.923114" lat="12.745514">
                <ele>76.081421</ele>
                <time>2005-12-18T04:44:16Z</time>
            </trkpt>
            <trkpt lon="100.922813" lat="12.745686">
                <ele>78.004028</ele>
                <time>2005-12-18T04:44:31Z</time>
            </trkpt>
            <trkpt lon="100.922663" lat="12.745879">
                <ele>79.926636</ele>
                <time>2005-12-18T04:44:45Z</time>
            </trkpt>
            <trkpt lon="100.922728" lat="12.746179">
                <ele>80.888184</ele>
                <time>2005-12-18T04:45:01Z</time>
            </trkpt>
            <trkpt lon="100.922813" lat="12.746458">
                <ele>79.446045</ele>
                <time>2005-12-18T04:45:15Z</time>
            </trkpt>
            <trkpt lon="100.922813" lat="12.746994">
                <ele>79.446045</ele>
                <time>2005-12-18T04:45:30Z</time>
            </trkpt>
            <trkpt lon="100.922728" lat="12.747552">
                <ele>78.484741</ele>
                <time>2005-12-18T04:45:47Z</time>
            </trkpt>
            <trkpt lon="100.922792" lat="12.748003">
                <ele>76.081421</ele>
                <time>2005-12-18T04:46:02Z</time>
            </trkpt>
            <trkpt lon="100.922792" lat="12.748218">
                <ele>75.120239</ele>
                <time>2005-12-18T04:46:14Z</time>
            </trkpt>
            <trkpt lon="100.922813" lat="12.748218">
                <ele>76.081421</ele>
                <time>2005-12-18T04:47:39Z</time>
            </trkpt>
            <trkpt lon="100.922792" lat="12.748196">
                <ele>77.042847</ele>
                <time>2005-12-18T04:53:04Z</time>
            </trkpt>
            <trkpt lon="100.922792" lat="12.748218">
                <ele>75.600830</ele>
                <time>2005-12-18T04:53:57Z</time>
            </trkpt>
            <trkpt lon="100.922771" lat="12.748196">
                <ele>75.600830</ele>
                <time>2005-12-18T04:54:28Z</time>
            </trkpt>
            <trkpt lon="100.922685" lat="12.748196">
                <ele>75.600830</ele>
                <time>2005-12-18T04:54:44Z</time>
            </trkpt>
            <trkpt lon="100.922706" lat="12.748239">
                <ele>74.639526</ele>
                <time>2005-12-18T04:55:14Z</time>
            </trkpt>
            <trkpt lon="100.922577" lat="12.748432">
                <ele>74.639526</ele>
                <time>2005-12-18T04:55:27Z</time>
            </trkpt>
            <trkpt lon="100.922148" lat="12.748883">
                <ele>72.716919</ele>
                <time>2005-12-18T04:55:45Z</time>
            </trkpt>
            <trkpt lon="100.921719" lat="12.749548">
                <ele>68.871582</ele>
                <time>2005-12-18T04:56:02Z</time>
            </trkpt>
            <trkpt lon="100.921333" lat="12.750084">
                <ele>65.987671</ele>
                <time>2005-12-18T04:56:16Z</time>
            </trkpt>
            <trkpt lon="100.921247" lat="12.750342">
                <ele>65.507080</ele>
                <time>2005-12-18T04:56:21Z</time>
            </trkpt>
            <trkpt lon="100.921247" lat="12.750878">
                <ele>63.103638</ele>
                <time>2005-12-18T04:56:31Z</time>
            </trkpt>
            <trkpt lon="100.921226" lat="12.751822">
                <ele>59.739136</ele>
                <time>2005-12-18T04:56:49Z</time>
            </trkpt>
            <trkpt lon="100.921183" lat="12.752230">
                <ele>58.777710</ele>
                <time>2005-12-18T04:57:01Z</time>
            </trkpt>
            <trkpt lon="100.921011" lat="12.752273">
                <ele>58.777710</ele>
                <time>2005-12-18T04:57:10Z</time>
            </trkpt>
            <trkpt lon="100.920260" lat="12.752166">
                <ele>57.816528</ele>
                <time>2005-12-18T04:57:26Z</time>
            </trkpt>
            <trkpt lon="100.919209" lat="12.752101">
                <ele>54.451782</ele>
                <time>2005-12-18T04:57:45Z</time>
            </trkpt>
            <trkpt lon="100.918458" lat="12.752359">
                <ele>51.567871</ele>
                <time>2005-12-18T04:57:57Z</time>
            </trkpt>
            <trkpt lon="100.917728" lat="12.752745">
                <ele>48.203369</ele>
                <time>2005-12-18T04:58:09Z</time>
            </trkpt>
            <trkpt lon="100.917320" lat="12.752788">
                <ele>47.241821</ele>
                <time>2005-12-18T04:58:15Z</time>
            </trkpt>
            <trkpt lon="100.916076" lat="12.752659">
                <ele>44.358032</ele>
                <time>2005-12-18T04:58:32Z</time>
            </trkpt>
            <trkpt lon="100.914745" lat="12.752681">
                <ele>40.512817</ele>
                <time>2005-12-18T04:58:49Z</time>
            </trkpt>
            <trkpt lon="100.914230" lat="12.752595">
                <ele>39.070679</ele>
                <time>2005-12-18T04:58:56Z</time>
            </trkpt>
            <trkpt lon="100.914016" lat="12.752531">
                <ele>38.590088</ele>
                <time>2005-12-18T04:58:59Z</time>
            </trkpt>
            <trkpt lon="100.913694" lat="12.752595">
                <ele>37.148071</ele>
                <time>2005-12-18T04:59:04Z</time>
            </trkpt>
            <trkpt lon="100.912600" lat="12.753067">
                <ele>32.822266</ele>
                <time>2005-12-18T04:59:20Z</time>
            </trkpt>
            <trkpt lon="100.911248" lat="12.753475">
                <ele>28.976929</ele>
                <time>2005-12-18T04:59:38Z</time>
            </trkpt>
            <trkpt lon="100.910389" lat="12.753861">
                <ele>26.092896</ele>
                <time>2005-12-18T04:59:54Z</time>
            </trkpt>
            <trkpt lon="100.910368" lat="12.753882">
                <ele>26.092896</ele>
                <time>2005-12-18T04:59:55Z</time>
            </trkpt>
            <trkpt lon="100.910604" lat="12.754097">
                <ele>26.092896</ele>
                <time>2005-12-18T05:00:04Z</time>
            </trkpt>
            <trkpt lon="100.910647" lat="12.754140">
                <ele>26.092896</ele>
                <time>2005-12-18T05:00:05Z</time>
            </trkpt>
            <trkpt lon="100.911140" lat="12.754912">
                <ele>25.131714</ele>
                <time>2005-12-18T05:00:22Z</time>
            </trkpt>
            <trkpt lon="100.911398" lat="12.755363">
                <ele>25.131714</ele>
                <time>2005-12-18T05:00:32Z</time>
            </trkpt>
            <trkpt lon="100.911419" lat="12.755663">
                <ele>25.131714</ele>
                <time>2005-12-18T05:00:38Z</time>
            </trkpt>
            <trkpt lon="100.911591" lat="12.755964">
                <ele>25.131714</ele>
                <time>2005-12-18T05:00:45Z</time>
            </trkpt>
            <trkpt lon="100.912385" lat="12.756457">
                <ele>27.054321</ele>
                <time>2005-12-18T05:01:04Z</time>
            </trkpt>
            <trkpt lon="100.913029" lat="12.756822">
                <ele>28.496216</ele>
                <time>2005-12-18T05:01:22Z</time>
            </trkpt>
            <trkpt lon="100.913115" lat="12.756865">
                <ele>28.976929</ele>
                <time>2005-12-18T05:01:24Z</time>
            </trkpt>
            <trkpt lon="100.913286" lat="12.757208">
                <ele>28.496216</ele>
                <time>2005-12-18T05:01:33Z</time>
            </trkpt>
            <trkpt lon="100.913243" lat="12.757788">
                <ele>27.054321</ele>
                <time>2005-12-18T05:01:43Z</time>
            </trkpt>
            <trkpt lon="100.913286" lat="12.758238">
                <ele>25.612305</ele>
                <time>2005-12-18T05:01:50Z</time>
            </trkpt>
            <trkpt lon="100.913372" lat="12.758453">
                <ele>23.689575</ele>
                <time>2005-12-18T05:01:54Z</time>
            </trkpt>
            <trkpt lon="100.913479" lat="12.758646">
                <ele>23.689575</ele>
                <time>2005-12-18T05:01:58Z</time>
            </trkpt>
            <trkpt lon="100.913565" lat="12.758710">
                <ele>23.208984</ele>
                <time>2005-12-18T05:02:00Z</time>
            </trkpt>
            <trkpt lon="100.914230" lat="12.759161">
                <ele>23.689575</ele>
                <time>2005-12-18T05:02:18Z</time>
            </trkpt>
            <trkpt lon="100.914702" lat="12.759247">
                <ele>25.131714</ele>
                <time>2005-12-18T05:02:31Z</time>
            </trkpt>
            <trkpt lon="100.915217" lat="12.759097">
                <ele>28.015503</ele>
                <time>2005-12-18T05:02:48Z</time>
            </trkpt>
            <trkpt lon="100.915282" lat="12.759247">
                <ele>28.015503</ele>
                <time>2005-12-18T05:02:53Z</time>
            </trkpt>
            <trkpt lon="100.915453" lat="12.760062">
                <ele>25.612305</ele>
                <time>2005-12-18T05:03:11Z</time>
            </trkpt>
            <trkpt lon="100.915496" lat="12.761157">
                <ele>24.170288</ele>
                <time>2005-12-18T05:03:29Z</time>
            </trkpt>
            <trkpt lon="100.915496" lat="12.761199">
                <ele>24.170288</ele>
                <time>2005-12-18T05:03:30Z</time>
            </trkpt>
            <trkpt lon="100.915475" lat="12.761371">
                <ele>24.170288</ele>
                <time>2005-12-18T05:03:33Z</time>
            </trkpt>
            <trkpt lon="100.915196" lat="12.762165">
                <ele>27.054321</ele>
                <time>2005-12-18T05:03:51Z</time>
            </trkpt>
            <trkpt lon="100.915024" lat="12.762508">
                <ele>28.496216</ele>
                <time>2005-12-18T05:04:05Z</time>
            </trkpt>
            <trkpt lon="100.915003" lat="12.762530">
                <ele>29.457520</ele>
                <time>2005-12-18T05:04:18Z</time>
            </trkpt>
            <trkpt lon="100.915003" lat="12.762551">
                <ele>31.380127</ele>
                <time>2005-12-18T05:05:49Z</time>
            </trkpt>
            <trkpt lon="100.915003" lat="12.762551">
                <ele>29.938110</ele>
                <time>2005-12-18T05:06:38Z</time>
            </trkpt>
            <trkpt lon="100.915046" lat="12.762616">
                <ele>29.938110</ele>
                <time>2005-12-18T05:06:44Z</time>
            </trkpt>
            <trkpt lon="100.915067" lat="12.762659">
                <ele>30.418823</ele>
                <time>2005-12-18T05:06:48Z</time>
            </trkpt>
            <trkpt lon="100.915132" lat="12.762766">
                <ele>30.418823</ele>
                <time>2005-12-18T05:06:56Z</time>
            </trkpt>
            <trkpt lon="100.915604" lat="12.763045">
                <ele>32.341553</ele>
                <time>2005-12-18T05:07:12Z</time>
            </trkpt>
            <trkpt lon="100.915754" lat="12.763174">
                <ele>33.302856</ele>
                <time>2005-12-18T05:07:17Z</time>
            </trkpt>
            <trkpt lon="100.916162" lat="12.763345">
                <ele>34.264160</ele>
                <time>2005-12-18T05:07:27Z</time>
            </trkpt>
            <trkpt lon="100.916762" lat="12.763817">
                <ele>34.744873</ele>
                <time>2005-12-18T05:07:45Z</time>
            </trkpt>
            <trkpt lon="100.917020" lat="12.764032">
                <ele>34.744873</ele>
                <time>2005-12-18T05:07:53Z</time>
            </trkpt>
            <trkpt lon="100.916934" lat="12.764332">
                <ele>35.706055</ele>
                <time>2005-12-18T05:08:01Z</time>
            </trkpt>
            <trkpt lon="100.916698" lat="12.764761">
                <ele>37.628662</ele>
                <time>2005-12-18T05:08:13Z</time>
            </trkpt>
            <trkpt lon="100.916355" lat="12.765641">
                <ele>36.667480</ele>
                <time>2005-12-18T05:08:34Z</time>
            </trkpt>
            <trkpt lon="100.916097" lat="12.766221">
                <ele>37.148071</ele>
                <time>2005-12-18T05:08:48Z</time>
            </trkpt>
            <trkpt lon="100.915775" lat="12.766542">
                <ele>36.667480</ele>
                <time>2005-12-18T05:09:00Z</time>
            </trkpt>
            <trkpt lon="100.915647" lat="12.766585">
                <ele>36.667480</ele>
                <time>2005-12-18T05:09:03Z</time>
            </trkpt>
            <trkpt lon="100.915303" lat="12.766800">
                <ele>36.667480</ele>
                <time>2005-12-18T05:09:11Z</time>
            </trkpt>
            <trkpt lon="100.915239" lat="12.766821">
                <ele>36.667480</ele>
                <time>2005-12-18T05:09:13Z</time>
            </trkpt>
            <trkpt lon="100.914638" lat="12.766800">
                <ele>36.186768</ele>
                <time>2005-12-18T05:09:23Z</time>
            </trkpt>
            <trkpt lon="100.914402" lat="12.766993">
                <ele>36.186768</ele>
                <time>2005-12-18T05:09:29Z</time>
            </trkpt>
            <trkpt lon="100.914166" lat="12.767787">
                <ele>36.186768</ele>
                <time>2005-12-18T05:09:48Z</time>
            </trkpt>
            <trkpt lon="100.913908" lat="12.768688">
                <ele>39.551270</ele>
                <time>2005-12-18T05:10:11Z</time>
            </trkpt>
            <trkpt lon="100.913694" lat="12.769418">
                <ele>41.954712</ele>
                <time>2005-12-18T05:10:31Z</time>
            </trkpt>
            <trkpt lon="100.913501" lat="12.769697">
                <ele>42.435425</ele>
                <time>2005-12-18T05:10:43Z</time>
            </trkpt>
            <trkpt lon="100.913372" lat="12.769718">
                <ele>42.435425</ele>
                <time>2005-12-18T05:10:49Z</time>
            </trkpt>
            <trkpt lon="100.912921" lat="12.769825">
                <ele>40.993408</ele>
                <time>2005-12-18T05:11:06Z</time>
            </trkpt>
            <trkpt lon="100.912685" lat="12.769868">
                <ele>40.993408</ele>
                <time>2005-12-18T05:11:14Z</time>
            </trkpt>
            <trkpt lon="100.912600" lat="12.769761">
                <ele>40.512817</ele>
                <time>2005-12-18T05:11:18Z</time>
            </trkpt>
            <trkpt lon="100.912492" lat="12.769310">
                <ele>39.070679</ele>
                <time>2005-12-18T05:11:32Z</time>
            </trkpt>
            <trkpt lon="100.912385" lat="12.769010">
                <ele>37.628662</ele>
                <time>2005-12-18T05:11:42Z</time>
            </trkpt>
            <trkpt lon="100.912278" lat="12.768667">
                <ele>36.667480</ele>
                <time>2005-12-18T05:11:51Z</time>
            </trkpt>
            <trkpt lon="100.912127" lat="12.768452">
                <ele>36.667480</ele>
                <time>2005-12-18T05:12:00Z</time>
            </trkpt>
            <trkpt lon="100.911934" lat="12.768345">
                <ele>35.706055</ele>
                <time>2005-12-18T05:12:08Z</time>
            </trkpt>
            <trkpt lon="100.911484" lat="12.768538">
                <ele>33.783447</ele>
                <time>2005-12-18T05:12:24Z</time>
            </trkpt>
            <trkpt lon="100.911269" lat="12.768645">
                <ele>33.302856</ele>
                <time>2005-12-18T05:12:29Z</time>
            </trkpt>
            <trkpt lon="100.910819" lat="12.768667">
                <ele>33.302856</ele>
                <time>2005-12-18T05:12:43Z</time>
            </trkpt>
            <trkpt lon="100.910604" lat="12.768645">
                <ele>33.783447</ele>
                <time>2005-12-18T05:12:55Z</time>
            </trkpt>
            <trkpt lon="100.910432" lat="12.768667">
                <ele>34.264160</ele>
                <time>2005-12-18T05:13:22Z</time>
            </trkpt>
            <trkpt lon="100.910196" lat="12.768645">
                <ele>31.860718</ele>
                <time>2005-12-18T05:13:37Z</time>
            </trkpt>
            <trkpt lon="100.910003" lat="12.768538">
                <ele>32.341553</ele>
                <time>2005-12-18T05:13:53Z</time>
            </trkpt>
            <trkpt lon="100.909960" lat="12.768517">
                <ele>32.341553</ele>
                <time>2005-12-18T05:13:55Z</time>
            </trkpt>
            <trkpt lon="100.909896" lat="12.768559">
                <ele>30.899536</ele>
                <time>2005-12-18T05:14:08Z</time>
            </trkpt>
            <trkpt lon="100.909681" lat="12.768624">
                <ele>28.976929</ele>
                <time>2005-12-18T05:14:25Z</time>
            </trkpt>
            <trkpt lon="100.909402" lat="12.768688">
                <ele>28.496216</ele>
                <time>2005-12-18T05:14:35Z</time>
            </trkpt>
            <trkpt lon="100.909166" lat="12.768903">
                <ele>26.573608</ele>
                <time>2005-12-18T05:14:48Z</time>
            </trkpt>
            <trkpt lon="100.909123" lat="12.769053">
                <ele>26.573608</ele>
                <time>2005-12-18T05:14:54Z</time>
            </trkpt>
            <trkpt lon="100.908802" lat="12.769525">
                <ele>25.612305</ele>
                <time>2005-12-18T05:15:09Z</time>
            </trkpt>
            <trkpt lon="100.908608" lat="12.769761">
                <ele>26.573608</ele>
                <time>2005-12-18T05:15:20Z</time>
            </trkpt>
            <trkpt lon="100.908716" lat="12.770061">
                <ele>25.612305</ele>
                <time>2005-12-18T05:15:33Z</time>
            </trkpt>
            <trkpt lon="100.908823" lat="12.770534">
                <ele>25.612305</ele>
                <time>2005-12-18T05:15:49Z</time>
            </trkpt>
            <trkpt lon="100.909059" lat="12.771049">
                <ele>26.573608</ele>
                <time>2005-12-18T05:16:05Z</time>
            </trkpt>
            <trkpt lon="100.909381" lat="12.771778">
                <ele>28.015503</ele>
                <time>2005-12-18T05:16:26Z</time>
            </trkpt>
            <trkpt lon="100.909681" lat="12.772465">
                <ele>28.496216</ele>
                <time>2005-12-18T05:16:47Z</time>
            </trkpt>
            <trkpt lon="100.909789" lat="12.772722">
                <ele>28.015503</ele>
                <time>2005-12-18T05:16:55Z</time>
            </trkpt>
            <trkpt lon="100.909574" lat="12.772722">
                <ele>28.496216</ele>
                <time>2005-12-18T05:17:04Z</time>
            </trkpt>
            <trkpt lon="100.909531" lat="12.772658">
                <ele>28.496216</ele>
                <time>2005-12-18T05:17:06Z</time>
            </trkpt>
            <trkpt lon="100.909252" lat="12.771950">
                <ele>28.976929</ele>
                <time>2005-12-18T05:17:24Z</time>
            </trkpt>
            <trkpt lon="100.909081" lat="12.771606">
                <ele>28.976929</ele>
                <time>2005-12-18T05:17:33Z</time>
            </trkpt>
            <trkpt lon="100.908973" lat="12.771585">
                <ele>27.534912</ele>
                <time>2005-12-18T05:17:38Z</time>
            </trkpt>
            <trkpt lon="100.908909" lat="12.771606">
                <ele>27.534912</ele>
                <time>2005-12-18T05:17:40Z</time>
            </trkpt>
            <trkpt lon="100.908136" lat="12.771671">
                <ele>26.573608</ele>
                <time>2005-12-18T05:17:55Z</time>
            </trkpt>
            <trkpt lon="100.907192" lat="12.771821">
                <ele>24.651001</ele>
                <time>2005-12-18T05:18:14Z</time>
            </trkpt>
            <trkpt lon="100.906398" lat="12.772207">
                <ele>21.766968</ele>
                <time>2005-12-18T05:18:32Z</time>
            </trkpt>
            <trkpt lon="100.905304" lat="12.772851">
                <ele>15.037720</ele>
                <time>2005-12-18T05:18:51Z</time>
            </trkpt>
            <trkpt lon="100.904639" lat="12.773237">
                <ele>10.231201</ele>
                <time>2005-12-18T05:19:03Z</time>
            </trkpt>
            <trkpt lon="100.904553" lat="12.773345">
                <ele>7.827881</ele>
                <time>2005-12-18T05:19:11Z</time>
            </trkpt>
            <trkpt lon="100.904510" lat="12.773302">
                <ele>7.827881</ele>
                <time>2005-12-18T05:19:15Z</time>
            </trkpt>
            <trkpt lon="100.903845" lat="12.773709">
                <ele>6.866455</ele>
                <time>2005-12-18T05:19:31Z</time>
            </trkpt>
            <trkpt lon="100.902472" lat="12.774482">
                <ele>1.579346</ele>
                <time>2005-12-18T05:19:58Z</time>
            </trkpt>
            <trkpt lon="100.901978" lat="12.774847">
                <ele>0.618042</ele>
                <time>2005-12-18T05:20:10Z</time>
            </trkpt>
            <trkpt lon="100.901871" lat="12.775254">
                <ele>-3.227295</ele>
                <time>2005-12-18T05:20:23Z</time>
            </trkpt>
            <trkpt lon="100.901892" lat="12.775340">
                <ele>-3.707886</ele>
                <time>2005-12-18T05:20:27Z</time>
            </trkpt>
            <trkpt lon="100.902193" lat="12.775362">
                <ele>-0.824097</ele>
                <time>2005-12-18T05:20:38Z</time>
            </trkpt>
            <trkpt lon="100.902278" lat="12.775383">
                <ele>1.098633</ele>
                <time>2005-12-18T05:20:53Z</time>
            </trkpt>
            <trkpt lon="100.902278" lat="12.775383">
                <ele>1.098633</ele>
                <time>2005-12-18T05:20:56Z</time>
            </trkpt>
        </trkseg>
    </trk>
</gpx>